Terminal Aerodrome Forecast
Issued by NWS

Current Version | Previous Version | Text Only | Print | Product List | Glossary On
Versions: 1 2 3 4 5 6 7 8 9 10 11 12 13 14 15 16 17 18 19 20 21 22 23 24 25 26 27 28 29 30 31 32 33
172
FTUS41 KBTV 122320
TAFPBG
TAF
KPBG 122320Z 1300/1324 17015G20KT P6SM SCT060
     FM130400 17011KT 2SM -SHSN BR BKN040
      TEMPO 1304/1306 1/2SM SHSN FZFG VV008
     FM130700 29012G21KT 6SM -SHSN OVC025
     FM130900 30011G22KT P6SM VCSH OVC045
     FM131200 31012G19KT P6SM BKN070=

USA.gov is the U.S. government's official web portal to all federal, state and local government web resources and services.